sensor_id;sensor_type;location;lat;lon;timestamp;pressure;altitude;pressure_sealevel;temperature;humidity
72892;BME280;61032;50.782;6.818;2023-05-13T00:00:06;100827.78;;;14.42;78.59
72892;BME280;61032;50.782;6.818;2023-05-13T00:01:07;100822.59;;;14.40;78.61
72892;BME280;61032;50.782;6.818;2023-05-13T00:02:07;100829.41;;;14.43;78.55
72892;BME280;61032;50.782;6.818;2023-05-13T00:03:11;100823.06;;;14.42;78.64
72892;BME280;61032;50.782;6.818;2023-05-13T00:04:12;100820.28;;;14.42;78.76
72892;BME280;61032;50.782;6.818;2023-05-13T00:05:12;100821.09;;;14.43;78.69
72892;BME280;61032;50.782;6.818;2023-05-13T00:06:13;100821.91;;;14.43;78.59
72892;BME280;61032;50.782;6.818;2023-05-13T00:07:13;100823.19;;;14.46;78.79
72892;BME280;61032;50.782;6.818;2023-05-13T00:08:14;100822.59;;;14.53;78.49
72892;BME280;61032;50.782;6.818;2023-05-13T00:09:14;100815.34;;;14.48;78.33
72892;BME280;61032;50.782;6.818;2023-05-13T00:10:15;100825.47;;;14.44;78.28
72892;BME280;61032;50.782;6.818;2023-05-13T00:11:15;100827.44;;;14.43;78.64
72892;BME280;61032;50.782;6.818;2023-05-13T00:12:16;100826.19;;;14.41;78.65
72892;BME280;61032;50.782;6.818;2023-05-13T00:13:16;100820.28;;;14.42;78.64
72892;BME280;61032;50.782;6.818;2023-05-13T00:14:16;100822.91;;;14.39;78.05
72892;BME280;61032;50.782;6.818;2023-05-13T00:15:17;100822.81;;;14.35;78.63
72892;BME280;61032;50.782;6.818;2023-05-13T00:16:17;100823.94;;;14.34;78.87
72892;BME280;61032;50.782;6.818;2023-05-13T00:17:18;100821.31;;;14.38;78.73
72892;BME280;61032;50.782;6.818;2023-05-13T00:18:18;100816.56;;;14.38;78.53
72892;BME280;61032;50.782;6.818;2023-05-13T00:19:19;100825.56;;;14.35;78.54
72892;BME280;61032;50.782;6.818;2023-05-13T00:20:19;100823.72;;;14.39;78.59
72892;BME280;61032;50.782;6.818;2023-05-13T00:21:20;100826.50;;;14.39;78.39
72892;BME280;61032;50.782;6.818;2023-05-13T00:22:21;100826.03;;;14.37;78.49
72892;BME280;61032;50.782;6.818;2023-05-13T00:23:22;100828.34;;;14.35;78.44
72892;BME280;61032;50.782;6.818;2023-05-13T00:24:22;100835.94;;;14.38;78.15
72892;BME280;61032;50.782;6.818;2023-05-13T00:25:22;100825.94;;;14.34;78.43
72892;BME280;61032;50.782;6.818;2023-05-13T00:26:23;100822.13;;;14.26;78.60
72892;BME280;61032;50.782;6.818;2023-05-13T00:27:23;100831.13;;;14.23;78.81
72892;BME280;61032;50.782;6.818;2023-05-13T00:28:24;100833.09;;;14.23;78.81
72892;BME280;61032;50.782;6.818;2023-05-13T00:29:24;100828.94;;;14.17;78.96
72892;BME280;61032;50.782;6.818;2023-05-13T00:30:25;100828.59;;;14.18;79.45
72892;BME280;61032;50.782;6.818;2023-05-13T00:31:25;100825.59;;;14.23;79.21
72892;BME280;61032;50.782;6.818;2023-05-13T00:32:26;100830.31;;;14.23;78.87
72892;BME280;61032;50.782;6.818;2023-05-13T00:33:26;100831.59;;;14.25;78.65
72892;BME280;61032;50.782;6.818;2023-05-13T00:34:27;100824.44;;;14.24;78.71
72892;BME280;61032;50.782;6.818;2023-05-13T00:35:27;100820.75;;;14.20;78.69
72892;BME280;61032;50.782;6.818;2023-05-13T00:36:27;100830.66;;;14.21;78.65
72892;BME280;61032;50.782;6.818;2023-05-13T00:37:28;100823.50;;;14.20;78.54
72892;BME280;61032;50.782;6.818;2023-05-13T00:38:28;100825.47;;;14.20;78.63
72892;BME280;61032;50.782;6.818;2023-05-13T00:39:29;100822.59;;;14.16;78.87
72892;BME280;61032;50.782;6.818;2023-05-13T00:40:29;100827.31;;;14.16;78.97
72892;BME280;61032;50.782;6.818;2023-05-13T00:41:30;100822.03;;;14.10;78.69
72892;BME280;61032;50.782;6.818;2023-05-13T00:42:30;100825.25;;;14.13;78.79
72892;BME280;61032;50.782;6.818;2023-05-13T00:43:31;100824.47;;;14.12;79.17
72892;BME280;61032;50.782;6.818;2023-05-13T00:44:32;100824.00;;;14.10;79.24
72892;BME280;61032;50.782;6.818;2023-05-13T00:45:32;100833.09;;;14.10;78.98
72892;BME280;61032;50.782;6.818;2023-05-13T00:46:33;100825.16;;;14.09;79.13
72892;BME280;61032;50.782;6.818;2023-05-13T00:47:33;100828.38;;;14.11;78.84
72892;BME280;61032;50.782;6.818;2023-05-13T00:48:34;100831.38;;;14.06;79.00
72892;BME280;61032;50.782;6.818;2023-05-13T00:49:35;100831.25;;;14.02;78.85
72892;BME280;61032;50.782;6.818;2023-05-13T00:50:35;100828.69;;;13.97;78.65
72892;BME280;61032;50.782;6.818;2023-05-13T00:51:36;100823.50;;;13.96;79.14
72892;BME280;61032;50.782;6.818;2023-05-13T00:52:38;100824.31;;;13.96;79.36
72892;BME280;61032;50.782;6.818;2023-05-13T00:53:39;100822.81;;;13.99;79.16
72892;BME280;61032;50.782;6.818;2023-05-13T00:54:39;100822.47;;;14.00;78.87
72892;BME280;61032;50.782;6.818;2023-05-13T00:55:41;100816.16;;;14.00;78.83
72892;BME280;61032;50.782;6.818;2023-05-13T00:56:42;100822.47;;;14.00;78.29
72892;BME280;61032;50.782;6.818;2023-05-13T00:57:43;100820.06;;;13.99;78.36
72892;BME280;61032;50.782;6.818;2023-05-13T00:58:43;100818.56;;;14.01;78.17
72892;BME280;61032;50.782;6.818;2023-05-13T00:59:43;100820.06;;;13.99;78.58
72892;BME280;61032;50.782;6.818;2023-05-13T01:03:34;100811.53;;;13.80;78.60
72892;BME280;61032;50.782;6.818;2023-05-13T01:08:58;100821.19;;;13.61;79.73
72892;BME280;61032;50.782;6.818;2023-05-13T01:10:35;100815.31;;;13.63;79.52
72892;BME280;61032;50.782;6.818;2023-05-13T01:11:39;100816.47;;;13.62;79.70
72892;BME280;61032;50.782;6.818;2023-05-13T01:12:42;100816.59;;;13.65;79.56
72892;BME280;61032;50.782;6.818;2023-05-13T01:13:46;100823.38;;;13.68;79.33
72892;BME280;61032;50.782;6.818;2023-05-13T01:14:59;100813.16;;;13.68;78.91
72892;BME280;61032;50.782;6.818;2023-05-13T01:16:06;100817.81;;;13.56;78.85
72892;BME280;61032;50.782;6.818;2023-05-13T01:17:15;100817.16;;;13.59;79.03
72892;BME280;61032;50.782;6.818;2023-05-13T01:18:19;100816.34;;;13.58;78.96
72892;BME280;61032;50.782;6.818;2023-05-13T01:20:32;100822.06;;;13.53;79.09
72892;BME280;61032;50.782;6.818;2023-05-13T01:21:35;100816.06;;;13.51;78.65
72892;BME280;61032;50.782;6.818;2023-05-13T01:22:38;100823.13;;;13.49;78.80
72892;BME280;61032;50.782;6.818;2023-05-13T01:23:38;100824.75;;;13.50;79.01
72892;BME280;61032;50.782;6.818;2023-05-13T01:24:39;100813.56;;;13.46;79.26
72892;BME280;61032;50.782;6.818;2023-05-13T01:25:39;100825.97;;;13.40;78.95
72892;BME280;61032;50.782;6.818;2023-05-13T01:26:40;100828.69;;;13.28;79.75
72892;BME280;61032;50.782;6.818;2023-05-13T01:27:40;100821.56;;;13.27;79.64
72892;BME280;61032;50.782;6.818;2023-05-13T01:28:41;100823.53;;;13.26;80.02
72892;BME280;61032;50.782;6.818;2023-05-13T01:29:41;100826.84;;;13.32;79.68
72892;BME280;61032;50.782;6.818;2023-05-13T01:30:42;100825.47;;;13.26;79.75
72892;BME280;61032;50.782;6.818;2023-05-13T01:31:45;100822.91;;;13.21;80.27
72892;BME280;61032;50.782;6.818;2023-05-13T01:32:46;100832.00;;;13.21;80.52
72892;BME280;61032;50.782;6.818;2023-05-13T01:33:47;100823.19;;;13.28;80.52
72892;BME280;61032;50.782;6.818;2023-05-13T01:34:50;100826.41;;;13.30;80.29
72892;BME280;61032;50.782;6.818;2023-05-13T01:35:51;100827.78;;;13.36;80.00
72892;BME280;61032;50.782;6.818;2023-05-13T01:36:52;100831.50;;;13.40;79.45
72892;BME280;61032;50.782;6.818;2023-05-13T01:37:55;100828.13;;;13.34;79.34
72892;BME280;61032;50.782;6.818;2023-05-13T01:38:57;100831.69;;;13.35;79.64
72892;BME280;61032;50.782;6.818;2023-05-13T01:39:58;100830.56;;;13.36;79.18
72892;BME280;61032;50.782;6.818;2023-05-13T01:40:59;100823.41;;;13.35;79.37
72892;BME280;61032;50.782;6.818;2023-05-13T01:41:59;100826.63;;;13.37;79.51
72892;BME280;61032;50.782;6.818;2023-05-13T01:42:59;100825.03;;;13.36;79.07
72892;BME280;61032;50.782;6.818;2023-05-13T01:44:00;100827.66;;;13.32;78.99
72892;BME280;61032;50.782;6.818;2023-05-13T01:45:01;100823.28;;;13.31;78.74
72892;BME280;61032;50.782;6.818;2023-05-13T01:46:02;100831.34;;;13.24;79.22
72892;BME280;61032;50.782;6.818;2023-05-13T01:47:02;100829.91;;;13.18;79.62
72892;BME280;61032;50.782;6.818;2023-05-13T01:48:03;100837.88;;;13.20;79.48
72892;BME280;61032;50.782;6.818;2023-05-13T01:49:03;100830.06;;;13.22;79.48
72892;BME280;61032;50.782;6.818;2023-05-13T01:50:04;100822.25;;;13.24;79.20
72892;BME280;61032;50.782;6.818;2023-05-13T01:51:04;100830.06;;;13.22;79.55
72892;BME280;61032;50.782;6.818;2023-05-13T01:52:05;100821.47;;;13.15;79.31
72892;BME280;61032;50.782;6.818;2023-05-13T01:53:06;100836.28;;;13.10;79.82
72892;BME280;61032;50.782;6.818;2023-05-13T01:54:07;100832.38;;;13.11;79.75
72892;BME280;61032;50.782;6.818;2023-05-13T01:55:08;100829.28;;;13.13;79.69
72892;BME280;61032;50.782;6.818;2023-05-13T01:56:09;100837.72;;;13.16;79.90
72892;BME280;61032;50.782;6.818;2023-05-13T01:57:10;100834.63;;;13.18;79.64
72892;BME280;61032;50.782;6.818;2023-05-13T01:58:10;100834.63;;;13.18;79.36
72892;BME280;61032;50.782;6.818;2023-05-13T01:59:10;100829.13;;;13.18;80.04
72892;BME280;61032;50.782;6.818;2023-05-13T02:00:11;100832.50;;;13.15;79.31
72892;BME280;61032;50.782;6.818;2023-05-13T02:01:12;100833.91;;;13.08;79.15
72892;BME280;61032;50.782;6.818;2023-05-13T02:02:12;100829.38;;;13.04;79.46
72892;BME280;61032;50.782;6.818;2023-05-13T02:03:13;100833.28;;;13.03;79.48
72892;BME280;61032;50.782;6.818;2023-05-13T02:04:13;100831.81;;;13.05;79.45
72892;BME280;61032;50.782;6.818;2023-05-13T02:05:13;100839.28;;;13.05;79.60
72892;BME280;61032;50.782;6.818;2023-05-13T02:06:14;100833.41;;;13.06;79.65
72892;BME280;61032;50.782;6.818;2023-05-13T02:07:14;100836.66;;;13.08;79.82
72892;BME280;61032;50.782;6.818;2023-05-13T02:08:15;100831.47;;;13.07;79.37
72892;BME280;61032;50.782;6.818;2023-05-13T02:09:15;100837.00;;;13.07;79.15
72892;BME280;61032;50.782;6.818;2023-05-13T02:10:16;100832.28;;;13.07;79.14
72892;BME280;61032;50.782;6.818;2023-05-13T02:11:16;100836.19;;;13.06;79.27
72892;BME280;61032;50.782;6.818;2023-05-13T02:12:17;100829.72;;;13.02;78.93
72892;BME280;61032;50.782;6.818;2023-05-13T02:13:17;100835.56;;;13.01;79.07
72892;BME280;61032;50.782;6.818;2023-05-13T02:14:17;100837.19;;;13.02;79.29
72892;BME280;61032;50.782;6.818;2023-05-13T02:15:18;100832.34;;;12.99;79.35
72892;BME280;61032;50.782;6.818;2023-05-13T02:16:19;100835.91;;;12.99;79.34
72892;BME280;61032;50.782;6.818;2023-05-13T02:17:20;100835.91;;;12.99;79.37
72892;BME280;61032;50.782;6.818;2023-05-13T02:18:21;100843.84;;;13.01;79.38
72892;BME280;61032;50.782;6.818;2023-05-13T02:19:21;100834.28;;;12.98;79.38
72892;BME280;61032;50.782;6.818;2023-05-13T02:20:24;100840.44;;;12.83;79.46
72892;BME280;61032;50.782;6.818;2023-05-13T02:21:25;100841.25;;;12.84;79.81
72892;BME280;61032;50.782;6.818;2023-05-13T02:22:26;100848.25;;;12.81;79.71
72892;BME280;61032;50.782;6.818;2023-05-13T02:23:26;100840.25;;;12.88;79.84
72892;BME280;61032;50.782;6.818;2023-05-13T02:24:29;100843.91;;;12.92;79.51
72892;BME280;61032;50.782;6.818;2023-05-13T02:25:30;100841.50;;;12.91;79.45
72892;BME280;61032;50.782;6.818;2023-05-13T02:26:30;100842.78;;;12.93;79.29
72892;BME280;61032;50.782;6.818;2023-05-13T02:27:30;100838.53;;;12.96;79.24
72892;BME280;61032;50.782;6.818;2023-05-13T02:28:31;100836.25;;;12.98;79.04
72892;BME280;61032;50.782;6.818;2023-05-13T02:29:31;100839.81;;;12.98;79.38
72892;BME280;61032;50.782;6.818;2023-05-13T02:30:32;100830.72;;;12.98;79.29
72892;BME280;61032;50.782;6.818;2023-05-13T02:31:32;100833.81;;;12.96;79.18
72892;BME280;61032;50.782;6.818;2023-05-13T02:32:33;100828.97;;;12.93;79.29
72892;BME280;61032;50.782;6.818;2023-05-13T02:33:33;100822.78;;;12.96;79.54
72892;BME280;61032;50.782;6.818;2023-05-13T02:34:33;100825.06;;;12.94;79.25
72892;BME280;61032;50.782;6.818;2023-05-13T02:35:34;100830.59;;;12.94;79.32
72892;BME280;61032;50.782;6.818;2023-05-13T02:36:34;100824.41;;;12.97;79.43
72892;BME280;61032;50.782;6.818;2023-05-13T02:37:35;100818.69;;;13.02;79.33
72892;BME280;61032;50.782;6.818;2023-05-13T02:38:35;100825.81;;;13.03;79.38
72892;BME280;61032;50.782;6.818;2023-05-13T02:39:36;100828.56;;;13.03;79.09
72892;BME280;61032;50.782;6.818;2023-05-13T02:40:37;100827.91;;;13.06;79.11
72892;BME280;61032;50.782;6.818;2023-05-13T02:41:38;100826.41;;;13.09;78.81
72892;BME280;61032;50.782;6.818;2023-05-13T02:42:38;100827.44;;;13.04;78.40
72892;BME280;61032;50.782;6.818;2023-05-13T02:43:42;100821.31;;;12.99;78.90
72892;BME280;61032;50.782;6.818;2023-05-13T02:44:42;100821.31;;;12.99;79.17
72892;BME280;61032;50.782;6.818;2023-05-13T02:45:43;100819.81;;;13.01;79.37
72892;BME280;61032;50.782;6.818;2023-05-13T02:46:43;100820.09;;;13.08;79.12
72892;BME280;61032;50.782;6.818;2023-05-13T02:47:44;100815.47;;;13.13;78.93
72892;BME280;61032;50.782;6.818;2023-05-13T02:48:44;100814.56;;;13.08;79.02
72892;BME280;61032;50.782;6.818;2023-05-13T02:49:46;100822.38;;;13.06;79.02
72892;BME280;61032;50.782;6.818;2023-05-13T02:50:46;100812.63;;;13.09;78.82
72892;BME280;61032;50.782;6.818;2023-05-13T02:51:47;100814.22;;;13.10;79.37
72892;BME280;61032;50.782;6.818;2023-05-13T02:52:47;100813.06;;;13.11;79.00
72892;BME280;61032;50.782;6.818;2023-05-13T02:53:48;100806.50;;;13.03;79.38
72892;BME280;61032;50.782;6.818;2023-05-13T02:54:48;100804.88;;;13.02;79.44
72892;BME280;61032;50.782;6.818;2023-05-13T02:55:49;100806.97;;;13.05;79.40
72892;BME280;61032;50.782;6.818;2023-05-13T02:56:50;100806.50;;;13.03;79.01
72892;BME280;61032;50.782;6.818;2023-05-13T02:57:50;100811.69;;;13.05;79.42
72892;BME280;61032;50.782;6.818;2023-05-13T02:58:51;100808.59;;;13.06;79.46
72892;BME280;61032;50.782;6.818;2023-05-13T02:59:51;100808.34;;;13.12;78.84
72892;BME280;61032;50.782;6.818;2023-05-13T03:00:52;100803.28;;;13.14;79.16
72892;BME280;61032;50.782;6.818;2023-05-13T03:01:52;100802.47;;;13.13;78.79
72892;BME280;61032;50.782;6.818;2023-05-13T03:02:52;100801.56;;;13.09;78.93
72892;BME280;61032;50.782;6.818;2023-05-13T03:03:53;100802.59;;;13.04;79.32
72892;BME280;61032;50.782;6.818;2023-05-13T03:04:53;100804.88;;;13.02;79.19
72892;BME280;61032;50.782;6.818;2023-05-13T03:05:54;100800.97;;;13.03;79.42
72892;BME280;61032;50.782;6.818;2023-05-13T03:06:54;100801.50;;;12.97;79.40
72892;BME280;61032;50.782;6.818;2023-05-13T03:07:55;100802.84;;;12.91;79.38
72892;BME280;61032;50.782;6.818;2023-05-13T03:08:56;100809.41;;;12.86;79.64
72892;BME280;61032;50.782;6.818;2023-05-13T03:09:57;100803.75;;;12.83;79.98
72892;BME280;61032;50.782;6.818;2023-05-13T03:10:57;100800.59;;;12.72;80.46
72892;BME280;61032;50.782;6.818;2023-05-13T03:11:58;100809.19;;;12.70;80.67
72892;BME280;61032;50.782;6.818;2023-05-13T03:12:58;100810.00;;;12.71;80.44
72892;BME280;61032;50.782;6.818;2023-05-13T03:13:58;100810.16;;;12.74;80.29
72892;BME280;61032;50.782;6.818;2023-05-13T03:14:59;100815.84;;;12.69;80.25
72892;BME280;61032;50.782;6.818;2023-05-13T03:15:59;100813.78;;;12.66;80.24
72892;BME280;61032;50.782;6.818;2023-05-13T03:17:00;100816.41;;;12.63;80.08
72892;BME280;61032;50.782;6.818;2023-05-13T03:18:00;100822.88;;;12.67;80.15
72892;BME280;61032;50.782;6.818;2023-05-13T03:19:00;100813.91;;;12.70;80.20
72892;BME280;61032;50.782;6.818;2023-05-13T03:20:01;100813.44;;;12.68;80.46
72892;BME280;61032;50.782;6.818;2023-05-13T03:21:01;100810.22;;;12.66;80.35
72892;BME280;61032;50.782;6.818;2023-05-13T03:22:03;100813.78;;;12.66;80.39
72892;BME280;61032;50.782;6.818;2023-05-13T03:23:03;100825.84;;;12.62;80.55
72892;BME280;61032;50.782;6.818;2023-05-13T03:24:04;100818.22;;;12.59;80.55
72892;BME280;61032;50.782;6.818;2023-05-13T03:25:05;100813.53;;;12.59;80.81
72892;BME280;61032;50.782;6.818;2023-05-13T03:26:06;100816.94;;;12.56;80.10
72892;BME280;61032;50.782;6.818;2023-05-13T03:27:06;100818.09;;;12.55;80.58
72892;BME280;61032;50.782;6.818;2023-05-13T03:28:07;100820.38;;;12.53;80.61
72892;BME280;61032;50.782;6.818;2023-05-13T03:29:07;100822.78;;;12.55;80.91
72892;BME280;61032;50.782;6.818;2023-05-13T03:30:08;100827.50;;;12.54;80.92
72892;BME280;61032;50.782;6.818;2023-05-13T03:31:08;100819.41;;;12.49;80.88
72892;BME280;61032;50.782;6.818;2023-05-13T03:32:09;100825.41;;;12.51;81.28
72892;BME280;61032;50.782;6.818;2023-05-13T03:33:09;100821.84;;;12.51;80.82
72892;BME280;61032;50.782;6.818;2023-05-13T03:34:10;100819.75;;;12.48;80.70
72892;BME280;61032;50.782;6.818;2023-05-13T03:35:10;100825.25;;;12.48;80.70
72892;BME280;61032;50.782;6.818;2023-05-13T03:36:10;100820.91;;;12.47;80.90
72892;BME280;61032;50.782;6.818;2023-05-13T03:37:11;100821.69;;;12.47;80.71
72892;BME280;61032;50.782;6.818;2023-05-13T03:38:11;100828.03;;;12.48;80.50
72892;BME280;61032;50.782;6.818;2023-05-13T03:39:11;100824.34;;;12.44;80.78
72892;BME280;61032;50.782;6.818;2023-05-13T03:40:12;100828.25;;;12.43;80.88
72892;BME280;61032;50.782;6.818;2023-05-13T03:41:12;100826.16;;;12.39;80.76
72892;BME280;61032;50.782;6.818;2023-05-13T03:42:16;100826.00;;;12.36;80.37
72892;BME280;61032;50.782;6.818;2023-05-13T03:43:17;100827.28;;;12.38;80.45
72892;BME280;61032;50.782;6.818;2023-05-13T03:44:17;100828.91;;;12.39;80.21
72892;BME280;61032;50.782;6.818;2023-05-13T03:45:17;100835.75;;;12.33;80.43
72892;BME280;61032;50.782;6.818;2023-05-13T03:46:18;100835.09;;;12.36;80.65
72892;BME280;61032;50.782;6.818;2023-05-13T03:47:18;100831.50;;;12.36;80.23
72892;BME280;61032;50.782;6.818;2023-05-13T03:48:18;100833.31;;;12.32;80.54
72892;BME280;61032;50.782;6.818;2023-05-13T03:49:19;100824.91;;;12.28;80.27
72892;BME280;61032;50.782;6.818;2023-05-13T03:50:19;100824.50;;;12.18;80.66
72892;BME280;61032;50.782;6.818;2023-05-13T03:51:20;100821.13;;;12.12;81.03
72892;BME280;61032;50.782;6.818;2023-05-13T03:52:20;100822.41;;;12.15;81.17
72892;BME280;61032;50.782;6.818;2023-05-13T03:53:20;100824.97;;;12.20;81.20
72892;BME280;61032;50.782;6.818;2023-05-13T03:54:20;100830.81;;;12.18;81.29
72892;BME280;61032;50.782;6.818;2023-05-13T03:55:21;100821.25;;;12.16;81.75
72892;BME280;61032;50.782;6.818;2023-05-13T03:56:21;100824.69;;;12.13;81.99
72892;BME280;61032;50.782;6.818;2023-05-13T03:57:21;100825.16;;;12.15;82.12
72892;BME280;61032;50.782;6.818;2023-05-13T03:58:22;100825.63;;;12.17;81.84
72892;BME280;61032;50.782;6.818;2023-05-13T03:59:22;100826.44;;;12.17;81.71
72892;BME280;61032;50.782;6.818;2023-05-13T04:00:23;100823.38;;;12.10;81.63
72892;BME280;61032;50.782;6.818;2023-05-13T04:01:23;100821.03;;;12.00;81.70
72892;BME280;61032;50.782;6.818;2023-05-13T04:02:24;100824.75;;;12.04;81.99
72892;BME280;61032;50.782;6.818;2023-05-13T04:03:24;100827.50;;;12.04;81.69
72892;BME280;61032;50.782;6.818;2023-05-13T04:04:24;100825.56;;;12.04;81.48
72892;BME280;61032;50.782;6.818;2023-05-13T04:05:25;100823.13;;;12.03;81.54
72892;BME280;61032;50.782;6.818;2023-05-13T04:06:25;100821.63;;;12.05;81.82
72892;BME280;61032;50.782;6.818;2023-05-13T04:07:25;100822.09;;;12.08;81.78
72892;BME280;61032;50.782;6.818;2023-05-13T04:08:26;100820.84;;;12.05;81.64
72892;BME280;61032;50.782;6.818;2023-05-13T04:09:26;100822.91;;;12.08;80.90
72892;BME280;61032;50.782;6.818;2023-05-13T04:10:27;100820.50;;;12.07;80.79
72892;BME280;61032;50.782;6.818;2023-05-13T04:11:27;100830.25;;;12.04;80.95
72892;BME280;61032;50.782;6.818;2023-05-13T04:12:27;100827.13;;;12.05;81.30
72892;BME280;61032;50.782;6.818;2023-05-13T04:13:33;100821.78;;;12.09;81.25
72892;BME280;61032;50.782;6.818;2023-05-13T04:14:33;100825.81;;;12.12;81.19
72892;BME280;61032;50.782;6.818;2023-05-13T04:15:34;100830.66;;;12.15;81.27
72892;BME280;61032;50.782;6.818;2023-05-13T04:16:34;100827.09;;;12.14;80.89
72892;BME280;61032;50.782;6.818;2023-05-13T04:17:35;100835.53;;;12.18;81.27
72892;BME280;61032;50.782;6.818;2023-05-13T04:18:35;100827.72;;;12.20;81.06
72892;BME280;61032;50.782;6.818;2023-05-13T04:19:35;100829.81;;;12.23;80.63
72892;BME280;61032;50.782;6.818;2023-05-13T04:20:38;100832.59;;;12.23;80.19
72892;BME280;61032;50.782;6.818;2023-05-13T04:21:39;100828.22;;;12.22;79.99
72892;BME280;61032;50.782;6.818;2023-05-13T04:22:39;100826.75;;;12.24;80.33
72892;BME280;61032;50.782;6.818;2023-05-13T04:23:40;100826.41;;;12.26;80.17
72892;BME280;61032;50.782;6.818;2023-05-13T04:24:41;100824.91;;;12.28;79.94
72892;BME280;61032;50.782;6.818;2023-05-13T04:25:41;100824.91;;;12.28;80.03
72892;BME280;61032;50.782;6.818;2023-05-13T04:26:42;100828.69;;;12.24;79.99
72892;BME280;61032;50.782;6.818;2023-05-13T04:27:42;100830.31;;;12.25;80.07
72892;BME280;61032;50.782;6.818;2023-05-13T04:28:43;100829.59;;;12.28;80.05
72892;BME280;61032;50.782;6.818;2023-05-13T04:29:43;100830.41;;;12.28;79.66
72892;BME280;61032;50.782;6.818;2023-05-13T04:30:43;100830.75;;;12.27;79.37
72892;BME280;61032;50.782;6.818;2023-05-13T04:31:44;100833.06;;;12.25;79.22
72892;BME280;61032;50.782;6.818;2023-05-13T04:32:45;100834.19;;;12.24;79.46
72892;BME280;61032;50.782;6.818;2023-05-13T04:33:45;100831.47;;;12.15;80.17
72892;BME280;61032;50.782;6.818;2023-05-13T04:34:49;100837.94;;;12.19;80.27
72892;BME280;61032;50.782;6.818;2023-05-13T04:35:50;100839.56;;;12.20;80.24
72892;BME280;61032;50.782;6.818;2023-05-13T04:36:50;100829.00;;;12.22;80.59
72892;BME280;61032;50.782;6.818;2023-05-13T04:37:50;100829.50;;;12.24;80.93
72892;BME280;61032;50.782;6.818;2023-05-13T04:38:51;100834.69;;;12.26;80.73
72892;BME280;61032;50.782;6.818;2023-05-13T04:39:51;100829.59;;;12.28;80.72
72892;BME280;61032;50.782;6.818;2023-05-13T04:40:51;100842.72;;;12.31;80.71
72892;BME280;61032;50.782;6.818;2023-05-13T04:41:52;100841.91;;;12.30;80.59
72892;BME280;61032;50.782;6.818;2023-05-13T04:42:52;100848.41;;;12.34;80.63
72892;BME280;61032;50.782;6.818;2023-05-13T04:43:53;100845.31;;;12.36;80.46
72892;BME280;61032;50.782;6.818;2023-05-13T04:44:54;100840.59;;;12.36;80.28
72892;BME280;61032;50.782;6.818;2023-05-13T04:45:54;100835.56;;;12.38;80.14
72892;BME280;61032;50.782;6.818;2023-05-13T04:46:55;100841.56;;;12.41;79.83
72892;BME280;61032;50.782;6.818;2023-05-13T04:47:55;100846.25;;;12.40;79.58
72892;BME280;61032;50.782;6.818;2023-05-13T04:48:55;100842.69;;;12.39;79.51
72892;BME280;61032;50.782;6.818;2023-05-13T04:49:56;100850.66;;;12.32;79.10
72892;BME280;61032;50.782;6.818;2023-05-13T04:50:56;100845.16;;;12.32;79.63
72892;BME280;61032;50.782;6.818;2023-05-13T04:51:59;100844.69;;;12.30;79.68
72892;BME280;61032;50.782;6.818;2023-05-13T04:53:00;100848.25;;;12.31;79.77
72892;BME280;61032;50.782;6.818;2023-05-13T04:54:00;100843.53;;;12.31;79.52
72892;BME280;61032;50.782;6.818;2023-05-13T04:55:00;100839.81;;;12.27;79.97
72892;BME280;61032;50.782;6.818;2023-05-13T04:56:01;100846.78;;;12.33;80.03
72892;BME280;61032;50.782;6.818;2023-05-13T04:57:02;100844.97;;;12.37;80.07
72892;BME280;61032;50.782;6.818;2023-05-13T04:58:02;100850.31;;;12.43;79.82
72892;BME280;61032;50.782;6.818;2023-05-13T04:59:02;100850.63;;;12.41;80.15
72892;BME280;61032;50.782;6.818;2023-05-13T05:00:03;100850.16;;;12.39;80.19
72892;BME280;61032;50.782;6.818;2023-05-13T05:01:04;100846.72;;;12.42;80.45
72892;BME280;61032;50.782;6.818;2023-05-13T05:02:04;100846.06;;;12.45;80.42
72892;BME280;61032;50.782;6.818;2023-05-13T05:03:05;100845.38;;;12.48;80.44
72892;BME280;61032;50.782;6.818;2023-05-13T05:04:05;100845.53;;;12.52;80.18
72892;BME280;61032;50.782;6.818;2023-05-13T05:05:06;100843.91;;;12.51;80.22
72892;BME280;61032;50.782;6.818;2023-05-13T05:06:06;100843.84;;;12.59;80.26
72892;BME280;61032;50.782;6.818;2023-05-13T05:07:06;100849.66;;;12.66;80.11
72892;BME280;61032;50.782;6.818;2023-05-13T05:08:07;100847.16;;;12.73;79.87
72892;BME280;61032;50.782;6.818;2023-05-13T05:09:07;100847.91;;;12.83;79.79
72892;BME280;61032;50.782;6.818;2023-05-13T05:10:07;100842.31;;;12.91;79.44
72892;BME280;61032;50.782;6.818;2023-05-13T05:11:08;100843.03;;;13.00;79.26
72892;BME280;61032;50.782;6.818;2023-05-13T05:12:09;100846.81;;;13.17;78.80
72892;BME280;61032;50.782;6.818;2023-05-13T05:13:09;100848.72;;;13.37;78.38
72892;BME280;61032;50.782;6.818;2023-05-13T05:14:10;100839.44;;;13.54;78.02
72892;BME280;61032;50.782;6.818;2023-05-13T05:15:10;100844.78;;;13.59;77.33
72892;BME280;61032;50.782;6.818;2023-05-13T05:16:14;100841.00;;;13.63;77.23
72892;BME280;61032;50.782;6.818;2023-05-13T05:17:15;100848.25;;;13.68;76.94
72892;BME280;61032;50.782;6.818;2023-05-13T05:18:15;100846.06;;;13.73;76.65
72892;BME280;61032;50.782;6.818;2023-05-13T05:19:15;100854.81;;;13.75;75.88
72892;BME280;61032;50.782;6.818;2023-05-13T05:20:16;100852.50;;;13.77;75.99
72892;BME280;61032;50.782;6.818;2023-05-13T05:21:16;100860.72;;;13.86;75.79
72892;BME280;61032;50.782;6.818;2023-05-13T05:22:17;100854.50;;;13.89;75.56
72892;BME280;61032;50.782;6.818;2023-05-13T05:23:18;100861.75;;;13.82;75.51
72892;BME280;61032;50.782;6.818;2023-05-13T05:24:18;100851.63;;;13.86;75.65
72892;BME280;61032;50.782;6.818;2023-05-13T05:25:18;100856.94;;;13.91;75.67
72892;BME280;61032;50.782;6.818;2023-05-13T05:26:19;100857.38;;;13.93;75.54